createdAt,value
2023-05-14T00:01:14.683Z,5.10
2023-05-14T00:03:43.077Z,4.90
2023-05-14T00:06:11.479Z,5.50
2023-05-14T00:08:39.773Z,5.80
2023-05-14T00:11:09.169Z,5.40
2023-05-14T00:13:37.744Z,6.10
2023-05-14T00:16:06.207Z,5.00
2023-05-14T00:18:34.671Z,6.20
2023-05-14T00:21:03.318Z,6.30
2023-05-14T00:23:31.712Z,5.60
2023-05-14T00:26:00.090Z,6.00
2023-05-14T00:28:28.436Z,6.10
2023-05-14T00:30:57.371Z,6.60
2023-05-14T00:33:25.783Z,5.80
2023-05-14T00:35:54.179Z,5.60
2023-05-14T00:38:24.303Z,6.10
2023-05-14T00:40:52.677Z,6.00
2023-05-14T00:43:22.778Z,6.80
2023-05-14T00:45:54.352Z,5.60
2023-05-14T00:48:23.758Z,5.60
2023-05-14T00:50:52.339Z,6.60
2023-05-14T00:53:21.408Z,5.40
2023-05-14T00:55:50.611Z,5.60
2023-05-14T00:58:19.658Z,5.50
2023-05-14T01:00:48.385Z,5.40
2023-05-14T01:03:16.941Z,4.60
2023-05-14T01:05:51.481Z,5.20
2023-05-14T01:08:31.633Z,5.50
2023-05-14T01:11:06.770Z,6.00
2023-05-14T01:14:10.193Z,5.30
2023-05-14T01:16:40.730Z,4.80
2023-05-14T01:19:21.750Z,5.40
2023-05-14T01:24:18.265Z,5.90
2023-05-14T01:26:46.689Z,5.30
2023-05-14T01:29:23.313Z,5.50
2023-05-14T01:31:54.440Z,4.90
2023-05-14T01:34:24.607Z,5.00
2023-05-14T01:36:54.005Z,5.30
2023-05-14T01:39:24.268Z,5.10
2023-05-14T01:41:53.618Z,5.20
2023-05-14T01:44:22.104Z,5.70
2023-05-14T01:46:50.458Z,5.10
2023-05-14T01:49:19.781Z,5.20
2023-05-14T01:51:48.133Z,5.00
2023-05-14T01:54:16.408Z,5.30
2023-05-14T01:56:44.728Z,5.60
2023-05-14T01:59:13.058Z,5.40
2023-05-14T02:01:41.893Z,4.80
2023-05-14T02:04:10.253Z,5.50
2023-05-14T02:06:38.572Z,5.00
2023-05-14T02:09:07.078Z,5.40
2023-05-14T02:11:35.587Z,4.90
2023-05-14T02:14:03.892Z,5.00
2023-05-14T02:16:32.376Z,4.30
2023-05-14T02:19:00.831Z,5.00
2023-05-14T02:21:29.171Z,5.70
2023-05-14T02:23:57.625Z,5.10
2023-05-14T02:26:25.952Z,5.00
2023-05-14T02:28:54.307Z,5.60
2023-05-14T02:31:22.705Z,5.60
2023-05-14T02:33:51.576Z,5.40
2023-05-14T02:36:20.314Z,6.10
2023-05-14T02:38:48.656Z,5.00
2023-05-14T02:41:16.944Z,5.20
2023-05-14T02:43:45.214Z,4.80
2023-05-14T02:46:13.590Z,5.40
2023-05-14T02:48:42.015Z,5.50
2023-05-14T02:51:10.575Z,5.20
2023-05-14T02:53:39.044Z,6.00
2023-05-14T02:56:08.246Z,5.80
2023-05-14T02:58:36.539Z,5.10
2023-05-14T03:01:05.065Z,5.60
2023-05-14T03:03:34.321Z,5.50
2023-05-14T03:06:03.151Z,5.50
2023-05-14T03:08:31.524Z,5.10
2023-05-14T03:11:00.074Z,5.60
2023-05-14T03:13:28.414Z,5.40
2023-05-14T03:15:57.111Z,5.30
2023-05-14T03:18:25.540Z,5.00
2023-05-14T03:20:54.074Z,5.10
2023-05-14T03:23:23.461Z,4.80
2023-05-14T03:25:53.630Z,5.10
2023-05-14T03:28:21.957Z,4.50
2023-05-14T03:30:50.389Z,4.70
2023-05-14T03:33:18.798Z,4.10
2023-05-14T03:35:47.231Z,4.80
2023-05-14T03:38:15.656Z,5.10
2023-05-14T03:40:45.378Z,4.40
2023-05-14T03:43:13.761Z,4.50
2023-05-14T03:45:42.052Z,4.60
2023-05-14T03:48:10.546Z,4.30
2023-05-14T03:50:39.133Z,4.60
2023-05-14T03:53:07.569Z,4.10
2023-05-14T03:55:36.885Z,4.10
2023-05-14T03:58:11.107Z,4.50
2023-05-14T04:00:43.582Z,4.20
2023-05-14T04:03:12.236Z,4.70
2023-05-14T04:05:40.695Z,5.10
2023-05-14T04:08:09.082Z,4.80
2023-05-14T04:10:37.525Z,4.50
2023-05-14T04:13:06.200Z,5.30
2023-05-14T04:15:39.387Z,5.10
2023-05-14T04:18:08.031Z,4.70
2023-05-14T04:20:37.105Z,5.40
2023-05-14T04:23:05.556Z,4.80
2023-05-14T04:25:34.044Z,5.20
2023-05-14T04:28:02.362Z,4.50
2023-05-14T04:30:30.812Z,4.60
2023-05-14T04:32:59.202Z,5.20
2023-05-14T04:35:27.869Z,5.10
2023-05-14T04:37:56.897Z,5.50
2023-05-14T04:40:25.764Z,4.90
2023-05-14T04:42:54.317Z,4.90
2023-05-14T04:45:22.690Z,5.00
2023-05-14T04:47:51.580Z,5.20
2023-05-14T04:50:20.052Z,5.40
2023-05-14T04:52:48.317Z,5.00
2023-05-14T04:55:16.755Z,5.20
2023-05-14T04:57:45.099Z,4.80
2023-05-14T05:00:13.933Z,5.20
2023-05-14T05:02:42.322Z,4.80
2023-05-14T05:05:11.044Z,5.70
2023-05-14T05:07:39.335Z,4.90
2023-05-14T05:10:08.457Z,4.80
2023-05-14T05:12:36.776Z,5.40
2023-05-14T05:15:05.764Z,4.60
2023-05-14T05:17:34.066Z,4.80
2023-05-14T05:20:02.376Z,5.10
2023-05-14T05:22:30.981Z,4.40
2023-05-14T05:24:59.958Z,4.30
2023-05-14T05:27:28.418Z,5.50
2023-05-14T05:29:57.014Z,4.70
2023-05-14T05:32:25.627Z,5.10
2023-05-14T05:34:54.061Z,5.10
2023-05-14T05:37:22.351Z,4.70
2023-05-14T05:39:50.689Z,5.30
2023-05-14T05:42:18.981Z,4.60
2023-05-14T05:44:47.556Z,4.70
2023-05-14T05:47:17.264Z,5.50
2023-05-14T05:49:45.628Z,4.80
2023-05-14T05:52:14.037Z,5.20
2023-05-14T05:54:42.362Z,5.30
2023-05-14T05:57:10.760Z,4.60
2023-05-14T05:59:39.107Z,5.50
2023-05-14T06:02:07.424Z,4.80
2023-05-14T06:04:35.791Z,4.60
2023-05-14T06:07:04.544Z,5.90
2023-05-14T06:09:32.811Z,5.00
2023-05-14T06:12:01.169Z,5.60
2023-05-14T06:14:29.570Z,5.10
2023-05-14T06:16:58.831Z,3.90
2023-05-14T06:19:27.235Z,4.10
2023-05-14T06:21:56.166Z,4.20
2023-05-14T06:24:24.524Z,3.80
2023-05-14T06:26:52.813Z,3.50
2023-05-14T06:29:21.148Z,2.70
2023-05-14T06:31:49.665Z,2.80
2023-05-14T06:34:17.989Z,3.10
2023-05-14T06:36:46.394Z,3.10
2023-05-14T06:39:14.746Z,3.00
2023-05-14T06:41:43.151Z,3.30
2023-05-14T06:44:17.251Z,3.30
2023-05-14T06:46:45.584Z,2.80
2023-05-14T06:49:13.984Z,3.00
2023-05-14T06:51:42.699Z,3.10
2023-05-14T06:54:11.044Z,2.80
2023-05-14T06:56:39.363Z,2.80
2023-05-14T06:59:07.679Z,2.80
2023-05-14T07:01:36.148Z,3.00
2023-05-14T07:04:04.689Z,3.30
2023-05-14T07:06:33.016Z,3.10
2023-05-14T07:09:02.047Z,3.00
2023-05-14T07:11:30.489Z,3.20
2023-05-14T07:13:58.847Z,3.30
2023-05-14T07:16:27.407Z,2.80
2023-05-14T07:18:55.748Z,3.10
2023-05-14T07:21:24.114Z,3.80
2023-05-14T07:23:52.383Z,2.80
2023-05-14T07:26:21.569Z,3.20
2023-05-14T07:28:50.101Z,2.90
2023-05-14T07:31:18.498Z,2.90
2023-05-14T07:33:46.876Z,2.80
2023-05-14T07:36:15.240Z,2.90
2023-05-14T07:38:43.509Z,2.90
2023-05-14T07:41:12.353Z,2.90
2023-05-14T07:43:40.796Z,2.80
2023-05-14T07:46:09.153Z,2.90
2023-05-14T07:48:37.506Z,3.00
2023-05-14T07:51:05.872Z,2.90
2023-05-14T07:53:34.169Z,3.10
2023-05-14T07:56:02.521Z,3.10
2023-05-14T07:58:31.018Z,3.00
2023-05-14T08:00:59.481Z,3.00
2023-05-14T08:03:27.840Z,2.80
2023-05-14T08:05:56.602Z,2.90
2023-05-14T08:08:24.955Z,3.10
2023-05-14T08:10:53.402Z,2.90
2023-05-14T08:13:21.876Z,2.90
2023-05-14T08:15:50.297Z,2.90
2023-05-14T08:18:18.592Z,3.10
2023-05-14T08:20:47.201Z,2.70
2023-05-14T08:23:15.563Z,2.60
2023-05-14T08:25:43.835Z,2.70
2023-05-14T08:28:12.312Z,2.90
2023-05-14T08:30:40.728Z,3.10
2023-05-14T08:33:09.402Z,2.60
2023-05-14T08:35:37.786Z,2.90
2023-05-14T08:38:06.172Z,2.70
2023-05-14T08:40:34.875Z,3.00
2023-05-14T08:43:03.860Z,2.80
2023-05-14T08:45:34.475Z,2.80
2023-05-14T08:48:09.171Z,2.60
2023-05-14T08:50:37.871Z,2.70
2023-05-14T08:53:06.342Z,2.80
2023-05-14T08:55:35.439Z,2.80
2023-05-14T08:58:04.075Z,2.80
2023-05-14T09:00:32.415Z,2.30
2023-05-14T09:03:01.587Z,2.50
2023-05-14T09:05:30.128Z,2.90
2023-05-14T09:07:58.522Z,3.00
2023-05-14T09:10:27.046Z,3.10
2023-05-14T09:12:55.495Z,2.50
2023-05-14T09:15:27.834Z,2.90
2023-05-14T09:17:56.940Z,2.60
2023-05-14T09:20:26.612Z,3.10
2023-05-14T09:22:55.176Z,2.90
2023-05-14T09:25:28.517Z,2.70
2023-05-14T09:27:59.030Z,2.90
2023-05-14T09:32:55.884Z,2.70
2023-05-14T09:35:25.554Z,3.10
2023-05-14T09:37:55.601Z,2.70
2023-05-14T09:40:25.000Z,2.20
2023-05-14T09:42:53.679Z,2.70
2023-05-14T09:45:22.229Z,2.90
2023-05-14T09:47:50.764Z,2.90
2023-05-14T09:50:19.456Z,2.70
2023-05-14T09:52:47.997Z,3.10
2023-05-14T09:55:16.524Z,3.80
2023-05-14T09:57:45.257Z,3.80
2023-05-14T10:00:14.219Z,2.70
2023-05-14T10:02:45.211Z,2.70
2023-05-14T10:05:16.079Z,2.70
2023-05-14T10:07:48.333Z,2.60
2023-05-14T10:10:19.837Z,2.80
2023-05-14T10:13:01.217Z,3.00
2023-05-14T10:15:43.617Z,2.70
2023-05-14T10:18:16.536Z,2.80
2023-05-14T10:20:49.137Z,2.60
2023-05-14T10:23:18.106Z,2.90
2023-05-14T10:25:46.705Z,2.60
2023-05-14T10:28:15.129Z,2.60
2023-05-14T10:30:47.128Z,2.50
2023-05-14T10:33:18.328Z,2.30
2023-05-14T10:36:03.428Z,2.30
2023-05-14T10:38:37.103Z,2.60
2023-05-14T10:41:10.635Z,2.10
2023-05-14T10:43:40.481Z,2.60
2023-05-14T10:46:11.145Z,2.50
2023-05-14T10:51:11.076Z,2.60
2023-05-14T10:53:41.979Z,2.70
2023-05-14T10:56:12.368Z,2.20
2023-05-14T10:58:44.862Z,2.00
2023-05-14T11:01:13.910Z,2.40
2023-05-14T11:03:47.138Z,2.30
2023-05-14T11:06:16.472Z,2.20
2023-05-14T11:08:46.607Z,2.10
2023-05-14T11:11:15.236Z,2.50
2023-05-14T11:13:44.905Z,2.30
2023-05-14T11:16:23.513Z,1.90
2023-05-14T11:19:03.798Z,2.00
2023-05-14T11:21:35.096Z,2.20
2023-05-14T11:24:05.605Z,1.90
2023-05-14T11:26:34.499Z,2.00
2023-05-14T11:29:02.979Z,2.20
2023-05-14T11:31:31.644Z,2.40
2023-05-14T11:34:01.157Z,2.70
2023-05-14T11:36:29.476Z,2.40
2023-05-14T11:38:57.809Z,2.20
2023-05-14T11:41:28.274Z,2.00
2023-05-14T11:43:58.228Z,2.40
2023-05-14T11:46:26.729Z,2.10
2023-05-14T11:48:55.441Z,2.10
2023-05-14T11:51:24.751Z,2.20
2023-05-14T11:53:54.432Z,2.10
2023-05-14T11:56:22.788Z,2.20
2023-05-14T11:58:58.387Z,2.30
2023-05-14T12:01:28.651Z,2.20
2023-05-14T12:03:57.117Z,2.50
2023-05-14T12:06:31.898Z,2.30
2023-05-14T12:09:01.725Z,2.60
2023-05-14T12:11:33.581Z,2.10
2023-05-14T12:14:02.105Z,2.10
2023-05-14T12:16:35.443Z,2.30
2023-05-14T12:19:05.291Z,2.90
2023-05-14T12:21:34.956Z,2.50
2023-05-14T12:24:03.605Z,2.40
2023-05-14T12:26:35.164Z,2.30
2023-05-14T12:29:04.041Z,2.30
2023-05-14T12:31:35.248Z,2.30
2023-05-14T12:34:04.489Z,2.30
2023-05-14T12:36:32.986Z,2.20
2023-05-14T12:39:03.945Z,2.40
2023-05-14T12:41:33.805Z,2.20
2023-05-14T12:44:04.192Z,2.60
2023-05-14T12:46:33.327Z,2.50
2023-05-14T12:49:01.756Z,2.50
2023-05-14T12:51:30.184Z,2.50
2023-05-14T12:53:58.492Z,2.40
2023-05-14T12:56:28.581Z,2.40
2023-05-14T12:58:57.089Z,2.20
2023-05-14T13:01:25.543Z,2.30
2023-05-14T13:03:54.118Z,2.50
2023-05-14T13:06:22.627Z,2.30
2023-05-14T13:08:50.983Z,2.30
2023-05-14T13:11:19.272Z,2.40
2023-05-14T13:13:47.588Z,2.30
2023-05-14T13:16:17.103Z,2.70
2023-05-14T13:18:45.714Z,2.80
2023-05-14T13:21:14.210Z,2.90
2023-05-14T13:23:42.648Z,2.70
2023-05-14T13:26:11.056Z,2.80
2023-05-14T13:28:39.349Z,3.00
2023-05-14T13:31:12.856Z,2.70
2023-05-14T13:33:43.086Z,3.20
2023-05-14T13:36:14.428Z,2.90
2023-05-14T13:38:42.856Z,3.00
2023-05-14T13:41:11.128Z,2.80
2023-05-14T13:43:39.457Z,3.20
2023-05-14T13:46:07.920Z,2.70
2023-05-14T13:48:37.374Z,2.70
2023-05-14T13:51:05.817Z,3.20
2023-05-14T13:53:34.260Z,2.80
2023-05-14T13:56:02.802Z,2.70
2023-05-14T13:58:31.161Z,2.80
2023-05-14T14:00:59.617Z,2.90
2023-05-14T14:03:27.945Z,2.80
2023-05-14T14:05:56.292Z,2.30
2023-05-14T14:08:24.861Z,2.60
2023-05-14T14:10:55.394Z,2.30
2023-05-14T14:13:24.513Z,2.30
2023-05-14T14:15:53.064Z,2.70
2023-05-14T14:18:21.504Z,2.60
2023-05-14T14:20:49.995Z,2.20
2023-05-14T14:23:19.742Z,2.30
2023-05-14T14:25:48.301Z,2.50
2023-05-14T14:28:16.702Z,2.30
2023-05-14T14:30:45.202Z,2.20
2023-05-14T14:33:13.574Z,2.20
2023-05-14T14:35:41.907Z,2.40
2023-05-14T14:38:10.155Z,2.40
2023-05-14T14:40:38.604Z,2.30
2023-05-14T14:43:06.936Z,2.60
2023-05-14T14:45:35.217Z,2.20
2023-05-14T14:48:22.983Z,2.20
2023-05-14T14:50:52.124Z,2.20
2023-05-14T14:53:23.782Z,2.40
2023-05-14T14:55:52.430Z,2.40
2023-05-14T14:58:21.359Z,2.30
2023-05-14T15:00:53.485Z,2.20
2023-05-14T15:03:22.663Z,2.20
2023-05-14T15:05:52.318Z,2.30
2023-05-14T15:08:27.592Z,2.40
2023-05-14T15:10:56.638Z,2.40
2023-05-14T15:13:25.873Z,2.40
2023-05-14T15:15:54.413Z,2.20
2023-05-14T15:18:22.877Z,2.30
2023-05-14T15:20:52.246Z,2.20
2023-05-14T15:23:20.697Z,2.10
2023-05-14T15:25:49.636Z,2.30
2023-05-14T15:28:18.015Z,2.80
2023-05-14T15:30:48.524Z,2.30
2023-05-14T15:33:19.426Z,2.30
2023-05-14T15:35:48.159Z,2.70
2023-05-14T15:38:16.518Z,2.80
2023-05-14T15:40:44.950Z,2.10
2023-05-14T15:43:13.295Z,2.40
2023-05-14T15:45:43.229Z,2.60
2023-05-14T15:48:11.764Z,2.20
2023-05-14T15:50:40.494Z,2.40
2023-05-14T15:53:11.301Z,2.30
2023-05-14T15:55:39.737Z,2.40
2023-05-14T15:58:08.135Z,2.60
2023-05-14T16:00:36.588Z,2.30
2023-05-14T16:03:05.451Z,2.30
2023-05-14T16:05:34.436Z,2.40
2023-05-14T16:08:03.771Z,2.10
2023-05-14T16:10:32.157Z,2.10
2023-05-14T16:13:00.550Z,2.20
2023-05-14T16:15:29.225Z,2.30
2023-05-14T16:17:57.571Z,2.80
2023-05-14T16:20:26.090Z,2.40
2023-05-14T16:22:54.743Z,2.40
2023-05-14T16:25:23.183Z,2.30
2023-05-14T16:27:51.538Z,2.30
2023-05-14T16:30:19.885Z,2.50
2023-05-14T16:32:49.710Z,2.30
2023-05-14T16:35:18.062Z,2.50
2023-05-14T16:37:46.464Z,2.50
2023-05-14T16:40:16.303Z,2.20
2023-05-14T16:42:46.436Z,2.40
2023-05-14T16:45:16.228Z,2.10
2023-05-14T16:47:44.672Z,2.60
2023-05-14T16:50:13.101Z,2.50
2023-05-14T16:52:41.381Z,2.40
2023-05-14T16:55:10.102Z,2.60
2023-05-14T16:57:38.520Z,2.40
2023-05-14T17:00:07.902Z,2.40
2023-05-14T17:02:36.452Z,2.40
2023-05-14T17:05:05.911Z,4.60
2023-05-14T17:07:34.424Z,5.70
2023-05-14T17:10:02.818Z,3.50
2023-05-14T17:12:31.241Z,5.30
2023-05-14T17:14:59.675Z,5.60
2023-05-14T17:17:29.162Z,2.50
2023-05-14T17:19:57.513Z,2.30
2023-05-14T17:22:26.058Z,2.30
2023-05-14T17:24:54.507Z,2.30
2023-05-14T17:27:23.108Z,2.20
2023-05-14T17:29:51.520Z,2.30
2023-05-14T17:32:19.876Z,2.30
2023-05-14T17:34:48.258Z,2.60
2023-05-14T17:37:16.661Z,2.30
2023-05-14T17:39:44.937Z,2.30
2023-05-14T17:42:13.289Z,2.30
2023-05-14T17:44:41.613Z,2.30
2023-05-14T17:47:10.374Z,2.10
2023-05-14T17:49:39.038Z,2.40
2023-05-14T17:52:10.557Z,2.60
2023-05-14T17:54:38.872Z,2.40
2023-05-14T17:57:07.329Z,2.40
2023-05-14T17:59:35.722Z,2.60
2023-05-14T18:02:05.792Z,2.20
2023-05-14T18:04:34.227Z,3.20
2023-05-14T18:07:03.378Z,2.30
2023-05-14T18:09:31.908Z,2.30
2023-05-14T18:12:00.217Z,2.00
2023-05-14T18:14:28.660Z,2.20
2023-05-14T18:16:57.222Z,1.80
2023-05-14T18:19:25.752Z,2.40
2023-05-14T18:21:55.603Z,2.20
2023-05-14T18:24:24.012Z,2.00
2023-05-14T18:26:52.456Z,2.70
2023-05-14T18:29:20.760Z,2.60
2023-05-14T18:31:49.188Z,2.50
2023-05-14T18:34:17.654Z,2.90
2023-05-14T18:36:46.584Z,2.60
2023-05-14T18:39:14.861Z,2.50
2023-05-14T18:41:43.179Z,2.50
2023-05-14T18:44:11.466Z,2.60
2023-05-14T18:46:40.015Z,2.60
2023-05-14T18:49:08.599Z,2.40
2023-05-14T18:51:37.009Z,2.40
2023-05-14T18:54:05.509Z,4.10
2023-05-14T18:56:35.055Z,3.20
2023-05-14T18:59:04.519Z,3.30
2023-05-14T19:01:32.885Z,2.70
2023-05-14T19:04:03.133Z,2.90
2023-05-14T19:06:33.110Z,2.50
2023-05-14T19:09:01.602Z,2.60
2023-05-14T19:11:29.876Z,2.70
2023-05-14T19:13:58.300Z,2.40
2023-05-14T19:16:27.221Z,2.50
2023-05-14T19:18:55.861Z,2.20
2023-05-14T19:21:24.206Z,2.30
2023-05-14T19:23:52.841Z,2.30
2023-05-14T19:26:21.886Z,2.50
2023-05-14T19:28:50.537Z,2.40
2023-05-14T19:31:18.835Z,2.30
2023-05-14T19:33:47.236Z,2.70
2023-05-14T19:36:15.769Z,2.70
2023-05-14T19:38:44.145Z,2.30
2023-05-14T19:41:12.966Z,2.50
2023-05-14T19:43:41.354Z,2.90
2023-05-14T19:46:09.782Z,2.40
2023-05-14T19:48:38.989Z,2.70
2023-05-14T19:51:07.587Z,2.30
2023-05-14T19:53:35.931Z,2.40
2023-05-14T19:56:04.512Z,2.60
2023-05-14T19:58:32.793Z,2.30
2023-05-14T20:01:01.161Z,2.70
2023-05-14T20:03:30.057Z,2.50
2023-05-14T20:05:58.406Z,2.20
2023-05-14T20:08:26.877Z,2.60
2023-05-14T20:10:55.422Z,2.70
2023-05-14T20:13:25.278Z,2.70
2023-05-14T20:15:55.334Z,2.60
2023-05-14T20:18:23.925Z,2.60
2023-05-14T20:20:52.292Z,2.40
2023-05-14T20:23:20.920Z,2.50
2023-05-14T20:25:49.389Z,2.70
2023-05-14T20:28:17.779Z,2.40
2023-05-14T20:30:46.133Z,2.90
2023-05-14T20:33:15.140Z,2.40
2023-05-14T20:35:44.217Z,2.70
2023-05-14T20:38:13.499Z,2.50
2023-05-14T20:40:41.865Z,2.50
2023-05-14T20:43:10.433Z,2.70
2023-05-14T20:45:39.308Z,2.60
2023-05-14T20:48:10.253Z,2.70
2023-05-14T20:50:38.703Z,2.90
2023-05-14T20:53:07.056Z,2.70
2023-05-14T20:55:35.501Z,2.70
2023-05-14T20:58:04.040Z,2.50
2023-05-14T21:00:32.327Z,2.40
2023-05-14T21:03:00.970Z,2.70
2023-05-14T21:05:29.605Z,2.80
2023-05-14T21:07:57.953Z,3.50
2023-05-14T21:10:26.580Z,2.90
2023-05-14T21:12:55.131Z,3.00
2023-05-14T21:15:23.892Z,3.10
2023-05-14T21:17:52.577Z,2.90
2023-05-14T21:20:21.107Z,2.90
2023-05-14T21:22:49.382Z,3.20
2023-05-14T21:25:17.852Z,3.00
2023-05-14T21:27:46.423Z,2.70
2023-05-14T21:30:15.050Z,2.60
2023-05-14T21:32:43.433Z,2.70
2023-05-14T21:35:11.760Z,2.60
2023-05-14T21:37:40.624Z,2.90
2023-05-14T21:40:09.821Z,2.60
2023-05-14T21:42:39.692Z,2.90
2023-05-14T21:45:08.520Z,2.80
2023-05-14T21:47:37.504Z,2.90
2023-05-14T21:50:07.017Z,2.50
2023-05-14T21:52:37.040Z,2.60
2023-05-14T21:55:05.805Z,2.90
2023-05-14T21:57:34.623Z,2.50
2023-05-14T22:00:07.916Z,3.10
2023-05-14T22:02:36.314Z,2.50
2023-05-14T22:05:05.418Z,2.30
2023-05-14T22:07:33.752Z,2.80
2023-05-14T22:10:02.407Z,2.70
2023-05-14T22:12:30.922Z,2.80
2023-05-14T22:14:59.221Z,2.80
2023-05-14T22:17:30.422Z,2.60
2023-05-14T22:19:58.755Z,2.90
2023-05-14T22:22:27.156Z,2.50
2023-05-14T22:24:55.808Z,2.70
2023-05-14T22:27:24.111Z,3.80
2023-05-14T22:29:52.508Z,2.50
2023-05-14T22:32:21.255Z,2.70
2023-05-14T22:34:49.665Z,2.60
2023-05-14T22:37:18.123Z,2.80
2023-05-14T22:39:46.463Z,2.60
2023-05-14T22:42:14.784Z,2.60
2023-05-14T22:44:43.060Z,2.70
2023-05-14T22:47:11.404Z,2.90
2023-05-14T22:49:43.761Z,2.80
2023-05-14T22:52:12.168Z,3.10
2023-05-14T22:54:40.495Z,2.60
2023-05-14T22:57:08.831Z,2.50
2023-05-14T22:59:37.182Z,2.20
2023-05-14T23:02:06.024Z,2.40
2023-05-14T23:04:35.808Z,2.30
2023-05-14T23:07:04.395Z,2.90
2023-05-14T23:09:32.658Z,2.60
2023-05-14T23:12:00.922Z,2.70
2023-05-14T23:14:29.175Z,2.70
2023-05-14T23:16:57.532Z,2.50
2023-05-14T23:19:26.784Z,2.50
2023-05-14T23:21:55.180Z,2.40
2023-05-14T23:24:23.501Z,2.90
2023-05-14T23:26:51.886Z,2.20
2023-05-14T23:29:20.190Z,2.80
2023-05-14T23:31:48.640Z,2.30
2023-05-14T23:34:18.618Z,2.50
2023-05-14T23:36:46.905Z,2.40
2023-05-14T23:39:15.201Z,2.40
2023-05-14T23:41:43.524Z,2.30
2023-05-14T23:44:11.848Z,2.40
2023-05-14T23:46:40.205Z,2.50
2023-05-14T23:49:08.518Z,2.90
2023-05-14T23:51:37.838Z,2.80
2023-05-14T23:54:06.200Z,2.90
2023-05-14T23:56:34.644Z,3.00
2023-05-14T23:59:03.763Z,2.70
